Time;durP1;ratioP1;P1;durP2;ratioP2;P2;SDS_P1;SDS_P2;PMS_P1;PMS_P2;Temp;Humidity;BMP_temperature;BMP_pressure;BME280_temperature;BME280_humidity;BME280_pressure;Samples;Min_cycle;Max_cycle;Signal;HPM_P1;HPM_P2
2022/08/12 00:44:14;;;;;;;9.32;3.90;;;;;;;21.74;46.55;101772.72;5110702;28;20111;-57
2022/08/12 00:47:05;;;;;;;6.78;4.20;;;;;;;21.75;46.49;101769.00;5109273;28;20426;-57
2022/08/12 00:49:31;;;;;;;6.35;3.90;;;;;;;21.76;47.04;101771.53;5100131;28;20405;-57
2022/08/12 00:52:08;;;;;;;7.60;3.88;;;;;;;21.63;47.82;101765.59;5110037;28;20030;-56
2022/08/12 00:54:48;;;;;;;7.72;4.20;;;;;;;21.65;47.40;101763.63;5086788;28;20060;-56
2022/08/12 00:57:23;;;;;;;6.60;3.80;;;;;;;21.60;48.26;101765.06;5081771;28;20494;-57
2022/08/12 00:59:52;;;;;;;7.78;3.83;;;;;;;21.45;47.16;101768.22;5095144;28;20022;-56
2022/08/12 01:02:33;;;;;;;7.22;3.85;;;;;;;21.44;48.38;101765.63;5100172;28;20074;-56
2022/08/12 01:13:27;;;;;;;7.70;4.22;;;;;;;21.41;46.87;101768.63;5095501;28;20100;-56
2022/08/12 01:15:55;;;;;;;5.18;3.90;;;;;;;21.23;48.15;101769.34;5111788;28;20027;-56
2022/08/12 01:18:24;;;;;;;4.75;3.50;;;;;;;21.26;47.67;101758.22;5104886;28;20054;-57
2022/08/12 01:21:16;;;;;;;8.80;3.88;;;;;;;21.25;46.60;101756.53;5111814;28;20030;-57
2022/08/12 01:23:52;;;;;;;6.22;4.50;;;;;;;21.27;47.23;101772.63;5107210;28;20118;-56
2022/08/12 01:26:22;;;;;;;4.13;3.70;;;;;;;21.14;47.93;101764.78;5094879;28;20035;-57
2022/08/12 01:28:51;;;;;;;6.32;3.83;;;;;;;21.22;47.82;101769.50;5089673;28;20355;-57
2022/08/12 01:31:18;;;;;;;10.18;3.80;;;;;;;21.10;47.82;101771.50;5091639;28;20100;-57
2022/08/12 01:34:10;;;;;;;8.60;3.85;;;;;;;21.10;47.92;101766.09;5092904;28;20047;-57
2022/08/12 01:36:44;;;;;;;7.85;3.85;;;;;;;21.15;47.68;101779.16;5103553;28;20060;-56
2022/08/12 01:39:13;;;;;;;7.22;4.10;;;;;;;21.01;48.79;101770.50;5089337;28;20036;-57
2022/08/12 01:41:44;;;;;;;6.47;3.60;;;;;;;21.14;48.17;101769.34;5095632;28;20024;-57
2022/08/12 01:44:13;;;;;;;7.63;4.05;;;;;;;21.13;47.91;101775.78;5109857;28;20024;-56
2022/08/12 01:46:47;;;;;;;7.88;4.72;;;;;;;21.06;47.99;101775.47;5108747;28;20027;-57
2022/08/12 01:49:37;;;;;;;6.78;4.13;;;;;;;21.14;47.63;101772.06;5091731;28;20081;-57
2022/08/12 01:52:08;;;;;;;7.18;4.25;;;;;;;21.09;47.97;101767.94;5106909;28;20027;-56
2022/08/12 01:54:41;;;;;;;6.30;4.20;;;;;;;21.00;48.70;101760.69;5090395;28;20077;-56
2022/08/12 01:57:15;;;;;;;4.63;4.10;;;;;;;21.00;48.58;101765.22;5095016;28;20030;-57
2022/08/12 01:59:57;;;;;;;6.93;3.97;;;;;;;20.80;48.27;101758.97;5108523;28;20027;-56
2022/08/12 02:02:31;;;;;;;7.70;3.83;;;;;;;20.78;48.97;101763.66;5109798;28;20034;-56
2022/08/12 02:11:21;;;;;;;9.05;4.50;;;;;;;20.77;48.92;101761.94;5097737;28;20084;-56
2022/08/12 02:14:14;;;;;;;9.48;3.70;;;;;;;20.66;48.93;101752.13;5110332;27;20028;-56
2022/08/12 02:17:24;;;;;;;7.82;4.22;;;;;;;20.79;48.50;101754.53;5103173;28;20025;-56
2022/08/12 02:20:12;;;;;;;7.88;3.92;;;;;;;20.63;49.42;101757.81;5036745;28;20041;-56
2022/08/12 02:22:43;;;;;;;9.45;4.57;;;;;;;20.69;49.48;101753.69;5093893;28;20020;-56
2022/08/12 02:25:21;;;;;;;6.65;4.25;;;;;;;20.66;49.72;101753.97;5113215;28;20027;-57
2022/08/12 02:27:52;;;;;;;6.70;4.40;;;;;;;20.65;50.35;101753.13;5099694;27;20036;-56
2022/08/12 02:30:25;;;;;;;7.50;3.92;;;;;;;20.42;50.24;101752.47;5105498;28;20115;-56
2022/08/12 02:32:52;;;;;;;7.07;4.70;;;;;;;20.50;49.64;101749.94;5113081;27;20030;-57
2022/08/12 02:35:21;;;;;;;9.88;4.30;;;;;;;20.32;50.17;101740.78;5110732;28;20023;-56
2022/08/12 02:37:51;;;;;;;6.57;4.00;;;;;;;20.26;50.18;101741.31;5108433;28;20627;-57
2022/08/12 02:40:21;;;;;;;5.57;4.15;;;;;;;20.36;50.40;101750.31;5091751;28;20031;-56
2022/08/12 02:42:53;;;;;;;5.90;4.80;;;;;;;20.15;51.69;101743.16;5106062;28;20496;-56
2022/08/12 02:45:44;;;;;;;7.25;4.47;;;;;;;20.19;51.34;101743.72;5109087;28;20389;-56
2022/08/12 02:48:16;;;;;;;10.35;4.78;;;;;;;20.28;50.72;101742.06;5091226;28;20046;-56
2022/08/12 02:50:49;;;;;;;11.40;5.13;;;;;;;20.19;51.45;101738.31;5113089;28;20028;-57
2022/08/12 02:53:16;;;;;;;7.40;5.30;;;;;;;20.17;50.61;101743.84;5109557;28;20104;-56
2022/08/12 02:55:44;;;;;;;8.77;5.05;;;;;;;20.24;50.73;101743.34;5101923;27;20073;-56
2022/08/12 02:58:11;;;;;;;7.97;5.00;;;;;;;20.23;50.97;101741.59;5106474;28;20115;-56
2022/08/12 03:00:38;;;;;;;9.38;5.40;;;;;;;20.13;51.24;101741.56;5097331;28;20607;-56
2022/08/12 03:03:07;;;;;;;6.22;4.72;;;;;;;19.92;51.66;101747.91;5102817;28;20032;-56
2022/08/12 03:05:40;;;;;;;;;;;;;;;20.29;49.96;101741.03;5092858;28;20133;-56
2022/08/12 03:08:12;;;;;;;8.02;4.78;;;;;;;20.10;51.16;101740.00;5091086;28;19955;-57
2022/08/12 03:10:41;;;;;;;7.07;4.90;;;;;;;20.18;50.45;101742.88;5093556;28;20107;-57
2022/08/12 03:13:10;;;;;;;10.68;4.93;;;;;;;20.06;51.66;101748.50;5093720;28;20024;-57
2022/08/12 03:15:42;;;;;;;7.55;4.90;;;;;;;19.98;52.12;101738.41;5103832;28;20034;-56
2022/08/12 03:18:20;;;;;;;8.65;5.13;;;;;;;20.04;52.04;101740.56;5092158;28;20020;-56
2022/08/12 03:20:45;;;;;;;5.95;4.97;;;;;;;19.95;52.34;101733.28;5091767;28;20088;-56
2022/08/12 03:23:13;;;;;;;7.22;5.07;;;;;;;19.85;52.33;101733.22;5105334;28;20024;-56
2022/08/12 03:25:42;;;;;;;6.75;5.03;;;;;;;19.77;52.70;101730.34;5108427;28;20028;-57
2022/08/12 03:28:48;;;;;;;5.25;4.43;;;;;;;19.71;53.13;101729.03;5096593;28;20027;-56
2022/08/12 03:31:00;;;;;;;9.13;4.73;;;;;;;19.86;52.38;101734.09;5072727;28;20040;-56
2022/08/12 03:33:29;;;;;;;9.10;5.60;;;;;;;19.74;53.38;101726.06;5087872;28;20471;-56
2022/08/12 03:35:58;;;;;;;6.63;4.57;;;;;;;19.73;52.63;101720.81;5092749;28;20027;-56
2022/08/12 03:38:26;;;;;;;;;;;;;;;20.02;51.18;101720.91;5108811;28;20020;-56
2022/08/12 04:00:36;;;;;;;8.20;5.80;;;;;;;19.41;54.48;101723.56;5107653;28;20073;-56
2022/08/12 04:03:50;;;;;;;6.57;5.93;;;;;;;19.37;54.23;101732.94;5109474;28;20088;-56
2022/08/12 04:05:49;;;;;;;9.98;5.97;;;;;;;19.40;54.37;101738.06;5107038;28;20059;-57
2022/08/12 04:08:16;;;;;;;6.00;5.18;;;;;;;19.34;54.56;101739.44;5089086;28;20089;-57
2022/08/12 04:13:26;;;;;;;9.43;6.03;;;;;;;19.43;54.53;101737.78;5091801;28;20051;-57
2022/08/12 04:15:51;;;;;;;6.68;5.80;;;;;;;19.40;54.54;101733.53;5090917;28;20398;-57
2022/08/12 04:18:19;;;;;;;8.25;6.38;;;;;;;19.37;54.92;101747.28;5091722;28;20032;-57
2022/08/12 04:20:48;;;;;;;7.63;5.65;;;;;;;19.33;54.90;101750.38;5091169;28;20547;-56
2022/08/12 04:23:15;;;;;;;9.30;6.25;;;;;;;19.46;54.11;101746.47;5095642;28;20030;-57
2022/08/12 04:25:43;;;;;;;6.72;5.90;;;;;;;19.27;55.51;101739.13;5100527;28;20052;-56
2022/08/12 04:28:10;;;;;;;7.13;6.15;;;;;;;19.26;55.12;101737.41;5075244;28;20073;-56
2022/08/12 04:30:36;;;;;;;7.03;5.95;;;;;;;19.21;55.24;101746.91;5091181;28;20027;-56
2022/08/12 04:33:02;;;;;;;11.60;5.65;;;;;;;19.31;55.10;101744.25;5110489;28;20030;-57
2022/08/12 04:35:28;;;;;;;7.20;6.00;;;;;;;19.28;55.24;101740.81;5087837;28;20037;-56
2022/08/12 04:37:56;;;;;;;7.40;6.10;;;;;;;19.31;54.81;101746.94;5090866;28;20027;-56
2022/08/12 04:40:24;;;;;;;8.27;5.68;;;;;;;19.41;54.36;101748.75;5099631;28;20035;-57
2022/08/12 04:42:50;;;;;;;11.32;6.75;;;;;;;19.26;55.60;101744.63;5075560;28;20032;-57
2022/08/12 04:45:19;;;;;;;8.20;6.00;;;;;;;19.29;55.01;101741.69;5107154;28;20072;-56
2022/08/12 04:47:46;;;;;;;8.52;6.07;;;;;;;19.29;55.20;101747.06;5110435;28;20399;-57
2022/08/12 04:50:16;;;;;;;8.18;6.07;;;;;;;19.23;56.03;101737.66;5110874;28;20023;-56
2022/08/12 04:52:42;;;;;;;9.10;6.25;;;;;;;19.25;56.01;101746.47;5107374;28;20032;-56
2022/08/12 04:55:11;;;;;;;7.85;6.20;;;;;;;19.31;55.04;101749.66;5104505;28;20394;-56
2022/08/12 04:57:37;;;;;;;11.53;5.60;;;;;;;19.32;55.29;101744.09;5097741;28;20035;-56
2022/08/12 05:00:21;;;;;;;7.47;6.50;;;;;;;19.37;55.28;101741.88;5103152;28;20035;-57
2022/08/12 05:02:47;;;;;;;11.45;6.65;;;;;;;19.32;55.38;101741.41;5097623;28;20114;-56
2022/08/12 05:05:19;;;;;;;9.68;6.50;;;;;;;19.37;55.07;101738.34;5097237;28;20032;-56
2022/08/12 05:07:51;;;;;;;8.75;6.00;;;;;;;19.16;55.83;101722.16;5090199;28;20482;-56
2022/08/12 05:10:17;;;;;;;9.25;6.13;;;;;;;19.31;56.40;101738.84;5089132;28;20116;-57
2022/08/12 05:12:48;;;;;;;12.32;6.53;;;;;;;19.12;56.18;101713.47;5089973;28;20534;-56
2022/08/12 05:15:19;;;;;;;9.98;6.68;;;;;;;19.37;56.07;101738.34;5091432;28;20051;-56
2022/08/12 05:17:44;;;;;;;11.43;6.13;;;;;;;19.50;55.19;101734.44;5100422;28;20106;-57
2022/08/12 05:20:11;;;;;;;9.95;6.28;;;;;;;19.54;55.42;101739.56;5076595;28;20055;-56
2022/08/12 05:22:42;;;;;;;8.60;6.43;;;;;;;19.49;55.25;101732.72;5111607;28;20027;-57
2022/08/12 05:25:10;;;;;;;10.60;6.72;;;;;;;19.56;55.68;101743.84;5111694;28;20055;-56
2022/08/12 05:27:39;;;;;;;10.20;6.57;;;;;;;19.68;55.42;101741.97;5091680;28;20036;-56
2022/08/12 05:30:06;;;;;;;10.45;6.60;;;;;;;19.76;55.83;101742.13;5108393;28;20027;-57
2022/08/12 05:32:32;;;;;;;8.32;6.72;;;;;;;19.73;55.98;101747.78;5092453;28;20559;-56
2022/08/12 05:35:05;;;;;;;8.38;6.35;;;;;;;19.79;55.52;101751.81;5091243;28;20028;-57
2022/08/12 05:37:36;;;;;;;10.48;6.95;;;;;;;19.77;55.22;101748.41;5090098;28;20024;-57
2022/08/12 05:40:19;;;;;;;16.70;7.43;;;;;;;19.87;54.95;101750.13;5068690;28;20531;-57
2022/08/12 05:42:45;;;;;;;10.18;6.15;;;;;;;19.98;54.65;101751.91;5050910;28;20098;-56
2022/08/12 05:45:11;;;;;;;11.90;6.75;;;;;;;20.01;54.74;101754.31;5068576;28;20100;-56
2022/08/12 05:47:38;;;;;;;10.35;6.70;;;;;;;20.14;54.24;101754.09;5042502;28;20061;-57
2022/08/12 05:50:04;;;;;;;14.52;6.60;;;;;;;20.24;53.91;101755.00;5035647;28;20072;-57
2022/08/12 05:52:30;;;;;;;9.05;6.38;;;;;;;20.29;53.59;101757.25;5067548;28;20199;-57
2022/08/12 05:54:56;;;;;;;14.20;6.18;;;;;;;20.38;53.69;101753.72;5054639;28;20387;-56
2022/08/12 05:57:21;;;;;;;10.40;6.68;;;;;;;20.43;53.15;101762.28;5043829;28;20079;-56
2022/08/12 05:59:46;;;;;;;12.45;6.47;;;;;;;20.50;53.64;101765.28;5053661;28;20040;-56
2022/08/12 06:02:13;;;;;;;14.77;6.55;;;;;;;20.60;53.17;101766.19;5047291;28;20060;-56
2022/08/12 06:04:39;;;;;;;8.32;6.50;;;;;;;20.62;53.33;101767.75;5049606;28;20097;-56
2022/08/12 06:07:07;;;;;;;13.48;6.25;;;;;;;20.62;53.09;101754.25;5025155;28;20072;-56
2022/08/12 06:09:33;;;;;;;12.38;6.47;;;;;;;20.77;52.74;101765.50;5053049;28;20029;-57
2022/08/12 06:11:59;;;;;;;10.18;6.40;;;;;;;20.79;53.73;101758.09;5066480;28;20033;-56
2022/08/12 06:14:25;;;;;;;12.90;7.05;;;;;;;20.97;51.73;101768.19;5106152;28;20063;-56
2022/08/12 06:16:50;;;;;;;14.82;7.07;;;;;;;21.07;52.76;101763.66;5113794;28;20063;-56
2022/08/12 06:19:17;;;;;;;13.15;6.72;;;;;;;21.17;53.39;101772.63;5094299;28;20012;-57
2022/08/12 06:21:47;;;;;;;17.00;6.80;;;;;;;21.33;50.92;101770.19;5094422;28;20390;-56
2022/08/12 06:24:14;;;;;;;12.48;7.22;;;;;;;21.41;52.84;101766.78;5106524;28;20096;-56
2022/08/12 06:26:40;;;;;;;10.15;7.40;;;;;;;21.57;51.13;101771.59;5104926;28;20451;-56
2022/08/12 06:29:05;;;;;;;14.40;7.30;;;;;;;21.66;51.23;101765.31;5082841;28;20114;-56
2022/08/12 06:31:31;;;;;;;13.98;6.95;;;;;;;21.70;52.10;101760.44;5111692;28;20477;-56
2022/08/12 06:33:57;;;;;;;12.55;6.80;;;;;;;21.83;51.50;101768.28;5109266;28;20129;-57
2022/08/12 06:36:24;;;;;;;14.38;6.95;;;;;;;21.91;51.78;101760.22;5102427;28;20482;-57
2022/08/12 06:38:50;;;;;;;11.20;6.18;;;;;;;21.88;52.09;101750.53;5103719;27;20027;-57
2022/08/12 06:44:00;;;;;;;10.93;6.65;;;;;;;21.98;51.43;101762.22;5096589;28;20055;-57
2022/08/12 06:46:28;;;;;;;15.75;6.53;;;;;;;22.12;49.13;101765.41;5107701;28;20032;-56
2022/08/12 06:48:57;;;;;;;10.00;6.03;;;;;;;22.16;50.19;101770.41;5098330;28;20531;-57
2022/08/12 06:51:25;;;;;;;10.15;6.22;;;;;;;22.23;51.03;101759.84;5108983;28;20046;-57
2022/08/12 06:53:51;;;;;;;13.85;6.68;;;;;;;22.20;51.44;101750.16;5095780;28;20028;-57
2022/08/12 06:56:16;;;;;;;9.55;6.10;;;;;;;22.32;49.63;101758.94;5094716;28;20371;-57
2022/08/12 06:58:43;;;;;;;9.32;5.88;;;;;;;22.41;48.87;101752.63;5089913;28;20024;-57
2022/08/12 07:01:09;;;;;;;13.30;6.28;;;;;;;22.50;47.95;101747.25;5093667;28;20020;-57
2022/08/12 07:03:35;;;;;;;10.10;5.93;;;;;;;22.64;47.28;101752.16;5102787;28;20038;-57
2022/08/12 07:06:02;;;;;;;14.55;5.68;;;;;;;22.60;49.17;101751.63;5093967;28;20686;-57
2022/08/12 07:08:30;;;;;;;11.65;5.93;;;;;;;22.68;49.68;101746.28;5100867;28;20095;-57
2022/08/12 07:10:59;;;;;;;11.85;6.25;;;;;;;22.75;49.39;101754.66;5090195;28;20092;-59
2022/08/12 07:13:34;;;;;;;8.77;5.80;;;;;;;22.84;47.50;101761.88;5091430;28;20027;-58
2022/08/12 07:16:01;;;;;;;12.32;5.65;;;;;;;22.85;48.97;101754.56;5097888;28;20535;-58
2022/08/12 07:18:33;;;;;;;11.00;5.18;;;;;;;23.04;46.01;101759.03;5092172;28;20108;-58
2022/08/12 07:21:19;;;;;;;11.50;5.15;;;;;;;23.19;46.04;101762.91;5060132;28;20040;-58
2022/08/12 07:23:45;;;;;;;;;;;;;;;23.25;46.74;101762.25;5056827;28;20051;-58
2022/08/12 07:26:15;;;;;;;9.82;5.07;;;;;;;23.36;46.02;101766.59;5040309;28;20232;-57
2022/08/12 07:28:42;;;;;;;11.00;5.05;;;;;;;23.46;45.91;101764.63;5063575;28;20423;-59
2022/08/12 07:31:08;;;;;;;9.50;5.13;;;;;;;23.54;45.64;101767.41;5048483;28;20049;-59
2022/08/12 07:33:39;;;;;;;7.13;5.07;;;;;;;23.60;47.10;101767.78;5069601;28;20033;-59
2022/08/12 07:36:09;;;;;;;11.73;5.05;;;;;;;23.68;45.57;101767.81;5070515;28;20701;-59
2022/08/12 07:38:38;;;;;;;8.57;5.03;;;;;;;23.75;44.68;101777.94;5070427;28;20085;-59
2022/08/12 07:41:30;;;;;;;9.65;5.28;;;;;;;23.86;44.48;101776.81;5070095;28;20043;-58
2022/08/12 07:44:07;;;;;;;10.10;5.07;;;;;;;23.93;43.98;101777.00;5054370;28;20016;-61
2022/08/12 07:46:39;;;;;;;12.27;4.97;;;;;;;24.02;43.65;101778.75;5057327;28;20114;-59
2022/08/12 07:49:10;;;;;;;8.55;4.80;;;;;;;24.02;44.13;101765.16;5060700;28;20024;-58
2022/08/12 07:51:36;;;;;;;7.68;4.13;;;;;;;24.06;45.63;101773.84;5063215;28;20144;-63
2022/08/12 07:54:08;;;;;;;8.48;4.35;;;;;;;24.17;45.29;101759.97;5091314;28;20080;-60
2022/08/12 07:56:38;;;;;;;10.57;4.72;;;;;;;24.37;43.89;101766.84;5091792;28;20023;-59
2022/08/12 07:59:04;;;;;;;9.98;4.45;;;;;;;24.42;43.91;101769.94;5090081;28;20198;-60
2022/08/12 08:01:34;;;;;;;12.65;4.63;;;;;;;24.63;42.77;101769.50;5089161;28;20089;-60
2022/08/12 08:06:43;;;;;;;7.95;4.60;;;;;;;24.74;41.16;101781.94;5104320;28;20038;-59
2022/08/12 08:09:14;;;;;;;8.93;4.72;;;;;;;24.74;40.69;101781.06;5090675;28;20415;-60
2022/08/12 08:14:28;;;;;;;9.95;4.90;;;;;;;24.82;40.41;101781.94;5095104;28;20153;-59
2022/08/12 08:16:54;;;;;;;9.07;4.10;;;;;;;24.90;41.44;101773.78;5099397;28;20428;-58
2022/08/12 08:19:24;;;;;;;8.23;4.00;;;;;;;25.12;41.30;101779.59;5089771;28;20023;-60
2022/08/12 08:21:57;;;;;;;7.45;4.47;;;;;;;25.16;39.63;101786.44;5092914;28;20024;-59
2022/08/12 08:24:24;;;;;;;11.23;4.63;;;;;;;25.21;40.17;101775.91;5092991;28;20024;-55
2022/08/12 08:26:54;;;;;;;6.22;4.60;;;;;;;25.39;40.42;101781.16;5089952;28;20539;-56
2022/08/12 08:29:21;;;;;;;12.00;4.15;;;;;;;25.50;39.96;101783.53;5090811;28;20020;-56
2022/08/12 08:31:49;;;;;;;8.68;4.30;;;;;;;25.62;40.01;101781.31;5117026;27;20028;-56
2022/08/12 08:34:18;;;;;;;7.10;4.10;;;;;;;25.79;39.48;101785.69;5091681;28;20028;-55
2022/08/12 08:36:44;;;;;;;11.80;4.43;;;;;;;25.76;39.79;101771.56;5091379;28;20054;-56
2022/08/12 08:39:11;;;;;;;10.77;3.78;;;;;;;25.96;38.79;101786.53;5089803;28;20013;-56
2022/08/12 08:44:21;;;;;;;11.30;4.00;;;;;;;26.20;38.95;101790.19;5089688;28;20039;-56
2022/08/12 08:46:48;;;;;;;8.65;3.88;;;;;;;26.27;36.99;101780.28;5101203;28;20048;-56
2022/08/12 08:49:14;;;;;;;10.15;3.97;;;;;;;26.35;37.81;101779.38;5101367;28;20420;-56
2022/08/12 08:51:41;;;;;;;10.27;4.03;;;;;;;26.39;37.93;101783.47;5090673;28;20028;-57
2022/08/12 08:54:07;;;;;;;9.50;4.50;;;;;;;26.45;38.28;101788.22;5090779;28;20032;-57
2022/08/12 08:56:42;;;;;;;10.68;4.15;;;;;;;26.49;37.23;101781.38;5091217;28;20048;-56
2022/08/12 08:59:21;;;;;;;9.32;4.07;;;;;;;26.64;36.66;101785.06;5098609;28;20031;-56
2022/08/12 09:01:46;;;;;;;8.25;3.75;;;;;;;26.73;36.84;101789.44;5090930;28;20036;-58
2022/08/12 09:04:13;;;;;;;8.07;3.20;;;;;;;26.94;35.17;101782.47;5093168;28;20036;-58
2022/08/12 09:06:42;;;;;;;5.43;3.70;;;;;;;27.01;34.86;101780.72;5089628;28;20446;-57
2022/08/12 09:09:09;;;;;;;12.10;3.95;;;;;;;27.06;35.11;101780.16;5098413;28;20020;-58
2022/08/12 09:14:22;;;;;;;5.93;3.50;;;;;;;27.20;34.69;101778.56;5097279;28;20513;-59
2022/08/12 09:16:49;;;;;;;8.40;3.50;;;;;;;27.27;34.60;101774.06;5106312;28;20036;-57
2022/08/12 09:19:16;;;;;;;9.68;3.47;;;;;;;27.33;33.96;101776.91;5109497;28;20026;-57
2022/08/12 09:21:42;;;;;;;3.45;2.90;;;;;;;27.46;33.37;101781.72;5092729;28;20035;-58
2022/08/12 09:24:10;;;;;;;5.10;3.35;;;;;;;27.68;33.37;101782.72;5076428;28;20047;-57
2022/08/12 09:26:37;;;;;;;8.23;3.57;;;;;;;27.70;34.38;101774.31;5094043;28;20243;-57
2022/08/12 09:29:03;;;;;;;6.28;3.33;;;;;;;27.81;32.42;101776.63;5101255;28;20304;-57
2022/08/12 09:31:33;;;;;;;6.80;3.47;;;;;;;27.87;32.75;101775.03;5099451;28;20486;-58
2022/08/12 09:33:58;;;;;;;6.30;3.25;;;;;;;28.09;31.78;101776.81;5095975;28;20106;-58
2022/08/12 09:36:24;;;;;;;8.00;3.20;;;;;;;28.14;32.31;101766.13;5093356;28;20114;-57
2022/08/12 09:38:50;;;;;;;6.40;3.35;;;;;;;28.23;31.14;101770.47;5093514;28;20036;-59
2022/08/12 09:41:15;;;;;;;9.75;3.30;;;;;;;28.27;31.16;101762.75;5079478;28;20032;-59
2022/08/12 09:46:32;;;;;;;4.93;2.88;;;;;;;28.51;30.33;101765.16;5098344;28;20399;-58
2022/08/12 09:48:58;;;;;;;8.73;3.30;;;;;;;28.53;29.83;101754.88;5095041;28;20529;-59
2022/08/12 09:51:32;;;;;;;8.25;3.10;;;;;;;28.61;30.47;101750.31;5095067;28;20110;-59
2022/08/12 09:53:57;;;;;;;9.70;3.33;;;;;;;28.73;30.99;101746.03;5095762;28;20106;-60
2022/08/12 09:56:24;;;;;;;11.73;3.20;;;;;;;28.84;30.17;101753.72;5095695;28;20077;-59
2022/08/12 09:58:50;;;;;;;6.70;3.25;;;;;;;28.84;30.05;101742.78;5108525;28;20032;-59
2022/08/12 10:01:18;;;;;;;4.40;3.08;;;;;;;29.05;29.65;101741.09;5074373;28;20394;-60
2022/08/12 10:03:44;;;;;;;8.30;3.72;;;;;;;29.08;30.38;101749.75;5087729;28;20032;-59
2022/08/12 10:06:10;;;;;;;11.10;3.58;;;;;;;29.12;30.59;101740.13;5085491;28;20028;-59
2022/08/12 10:08:37;;;;;;;8.98;3.20;;;;;;;29.24;29.64;101729.47;5099792;28;20028;-60
2022/08/12 10:13:54;;;;;;;9.07;3.40;;;;;;;29.30;30.21;101736.91;5081825;28;20077;-58
2022/08/12 10:16:21;;;;;;;9.48;3.50;;;;;;;29.37;30.36;101728.72;5093971;28;20019;-59
2022/08/12 10:18:52;;;;;;;7.17;3.43;;;;;;;29.40;29.01;101736.53;5092821;28;20467;-59
2022/08/12 10:21:35;;;;;;;6.45;2.75;;;;;;;29.49;28.89;101737.22;5093346;28;20785;-59
2022/08/12 10:24:03;;;;;;;6.63;2.90;;;;;;;29.46;28.27;101721.19;5097527;28;20390;-59
2022/08/12 10:31:57;;;;;;;6.22;3.05;;;;;;;29.72;29.16;101724.13;5094535;28;20038;-57
2022/08/12 10:34:24;;;;;;;9.70;3.38;;;;;;;29.87;29.16;101726.75;5094966;28;20036;-56
2022/08/12 10:36:57;;;;;;;6.05;2.90;;;;;;;29.86;28.06;101714.09;5092541;28;20027;-57
2022/08/12 10:39:25;;;;;;;6.93;3.28;;;;;;;29.92;28.47;101707.78;5091466;28;20511;-57
2022/08/12 10:44:35;;;;;;;8.15;3.08;;;;;;;30.13;27.96;101700.47;5094300;28;21034;-57
2022/08/12 10:47:02;;;;;;;9.23;3.30;;;;;;;30.14;27.76;101696.66;5091664;28;20123;-57
2022/08/12 10:49:30;;;;;;;8.07;3.20;;;;;;;30.01;28.16;101689.25;5102561;28;20047;-57
2022/08/12 10:52:00;;;;;;;11.80;3.15;;;;;;;30.18;27.55;101696.06;5093266;28;20012;-57
2022/08/12 10:54:26;;;;;;;5.50;2.80;;;;;;;30.22;27.67;101694.63;5095665;28;20030;-57
2022/08/12 10:56:52;;;;;;;4.65;3.13;;;;;;;30.22;27.29;101694.63;5090329;28;20070;-57
2022/08/12 10:59:20;;;;;;;10.00;2.92;;;;;;;30.24;28.25;101688.94;5090498;28;20020;-57
2022/08/12 11:01:47;;;;;;;4.85;2.97;;;;;;;30.37;27.03;101683.47;5106507;28;20060;-57
2022/08/12 11:04:12;;;;;;;11.95;3.55;;;;;;;30.41;27.04;101684.75;5099696;28;20028;-57
2022/08/12 11:06:46;;;;;;;5.68;3.00;;;;;;;30.47;26.75;101685.81;5093423;28;20050;-57
2022/08/12 11:09:34;;;;;;;6.78;2.95;;;;;;;30.46;26.26;101682.22;5098288;28;20482;-57
2022/08/12 11:12:05;;;;;;;8.23;2.83;;;;;;;30.45;26.31;101668.72;5092570;28;20074;-57
2022/08/12 11:14:32;;;;;;;5.43;3.00;;;;;;;30.56;26.91;101670.81;5091933;28;20020;-57
2022/08/12 11:17:06;;;;;;;4.97;2.70;;;;;;;30.64;26.22;101662.38;5094694;28;20333;-57
2022/08/12 11:19:35;;;;;;;5.78;2.90;;;;;;;30.66;26.27;101664.94;5126420;27;20055;-58
2022/08/12 11:22:03;;;;;;;7.80;2.95;;;;;;;30.67;26.54;101656.47;5109969;28;20027;-60
2022/08/12 11:24:29;;;;;;;6.33;3.10;;;;;;;30.80;26.46;101663.06;5112374;28;20019;-60
2022/08/12 11:26:59;;;;;;;5.97;3.13;;;;;;;30.80;26.29;101672.16;5099099;28;20099;-59
2022/08/12 11:29:26;;;;;;;4.55;3.25;;;;;;;30.85;26.61;101663.28;5092794;28;20058;-59
2022/08/12 11:31:52;;;;;;;6.05;2.70;;;;;;;30.75;26.10;101655.44;5093028;28;20108;-64
2022/08/12 11:34:18;;;;;;;10.02;2.97;;;;;;;30.84;25.82;101659.69;5090431;28;20111;-61
2022/08/12 11:36:51;;;;;;;9.30;3.15;;;;;;;30.87;26.20;101663.91;5109475;28;20027;-60
2022/08/12 11:39:18;;;;;;;6.10;2.90;;;;;;;30.82;25.50;101644.47;5108325;28;20020;-60
2022/08/12 11:41:44;;;;;;;7.38;3.00;;;;;;;30.77;26.24;101647.84;5091731;28;20036;-60
2022/08/12 11:44:12;;;;;;;5.25;2.75;;;;;;;30.73;25.77;101643.81;5090642;28;20020;-60
2022/08/12 11:46:39;;;;;;;4.35;2.70;;;;;;;30.74;26.11;101637.28;5093829;28;20115;-59
2022/08/12 11:49:06;;;;;;;4.53;3.13;;;;;;;30.83;26.42;101635.19;5098084;28;20436;-59
2022/08/12 11:51:35;;;;;;;5.45;3.00;;;;;;;30.90;26.69;101641.50;5106032;28;20058;-59
2022/08/12 11:54:01;;;;;;;8.70;3.17;;;;;;;30.93;25.46;101636.44;5091817;28;20467;-59
2022/08/12 11:56:27;;;;;;;11.02;3.15;;;;;;;31.00;25.69;101642.78;5088991;28;20127;-60
2022/08/12 11:58:52;;;;;;;8.00;3.13;;;;;;;31.02;25.44;101637.06;5085014;28;20062;-58
2022/08/12 12:01:18;;;;;;;4.65;2.63;;;;;;;31.08;25.54;101633.47;5084596;28;20049;-59
2022/08/12 12:03:44;;;;;;;7.78;3.00;;;;;;;31.20;25.38;101633.66;5099388;28;20111;-60
2022/08/12 12:06:13;;;;;;;4.47;2.55;;;;;;;31.17;25.92;101621.19;5080814;28;20056;-59
2022/08/12 12:08:41;;;;;;;7.50;2.90;;;;;;;31.30;25.62;101627.72;5088020;28;20028;-60
2022/08/12 12:11:06;;;;;;;7.85;3.08;;;;;;;31.24;25.76;101626.69;5094217;28;20470;-58
2022/08/12 12:13:31;;;;;;;10.23;3.20;;;;;;;31.22;24.87;101623.28;5082461;28;20063;-59
2022/08/12 12:15:57;;;;;;;5.70;2.92;;;;;;;31.26;25.39;101609.97;5098274;28;20084;-58
2022/08/12 12:18:27;;;;;;;7.03;3.05;;;;;;;31.38;25.13;101614.59;5086650;28;20023;-60
2022/08/12 12:20:56;;;;;;;5.40;2.95;;;;;;;31.47;25.56;101617.13;5090795;28;20027;-59
2022/08/12 12:23:21;;;;;;;6.90;2.92;;;;;;;31.48;24.68;101625.16;5092891;28;20427;-60
2022/08/12 12:25:47;;;;;;;9.70;2.78;;;;;;;31.53;24.25;101622.59;5097340;28;20024;-59
2022/08/12 12:28:13;;;;;;;5.03;2.67;;;;;;;31.35;24.26;101606.78;5090112;28;20475;-58
2022/08/12 12:30:40;;;;;;;4.75;2.60;;;;;;;31.35;24.28;101605.94;5091554;28;20051;-60
2022/08/12 12:33:06;;;;;;;5.85;2.80;;;;;;;31.46;25.53;101619.03;5091315;28;20023;-60
2022/08/12 12:35:33;;;;;;;3.75;2.55;;;;;;;31.50;24.25;101606.53;5080296;28;20027;-60
2022/08/12 12:38:01;;;;;;;7.65;2.70;;;;;;;31.62;24.60;101601.19;5090268;28;20016;-61
2022/08/12 12:40:29;;;;;;;12.18;3.20;;;;;;;31.61;24.52;101597.59;5099828;28;20462;-61
2022/08/12 12:42:55;;;;;;;6.87;3.00;;;;;;;31.49;24.20;101587.50;5080630;28;20031;-60
2022/08/12 12:45:21;;;;;;;6.45;3.03;;;;;;;31.53;24.54;101599.75;5090560;28;20293;-61
2022/08/12 12:47:55;;;;;;;8.93;3.20;;;;;;;31.60;24.55;101601.41;5094969;28;20151;-60
2022/08/12 12:50:21;;;;;;;12.82;3.47;;;;;;;31.52;23.94;101592.56;5071277;28;20093;-60
2022/08/12 12:52:47;;;;;;;4.28;3.00;;;;;;;31.59;26.15;101591.50;5073615;28;20035;-61
2022/08/12 12:55:15;;;;;;;5.50;3.08;;;;;;;31.44;24.18;101583.50;5091315;28;20040;-60
2022/08/12 12:57:41;;;;;;;5.97;3.03;;;;;;;31.59;24.16;101588.75;5089926;28;20428;-60
2022/08/12 13:00:16;;;;;;;6.63;3.10;;;;;;;31.52;24.91;101574.16;5091414;28;20532;-60
2022/08/12 13:02:55;;;;;;;8.57;3.50;;;;;;;31.76;24.97;101578.06;5091764;28;20051;-60
2022/08/12 13:05:20;;;;;;;6.18;3.10;;;;;;;31.71;24.22;101569.63;5091872;28;20375;-60
2022/08/12 13:07:46;;;;;;;4.20;3.10;;;;;;;31.66;24.99;101573.03;5096608;28;20036;-61
2022/08/12 13:10:12;;;;;;;6.97;3.13;;;;;;;31.84;26.20;101574.22;5091623;28;20031;-61
2022/08/12 13:12:41;;;;;;;6.88;3.28;;;;;;;31.82;24.13;101568.06;5089751;28;20111;-60
2022/08/12 13:15:14;;;;;;;6.03;3.53;;;;;;;31.92;24.44;101564.91;5111553;28;20038;-60
2022/08/12 13:17:42;;;;;;;13.18;3.95;;;;;;;31.84;24.03;101561.28;5111907;28;20066;-61
2022/08/12 13:20:08;;;;;;;10.82;3.83;;;;;;;31.92;24.58;101565.75;5111682;28;20401;-60
2022/08/12 13:22:38;;;;;;;11.45;3.58;;;;;;;31.75;24.69;101557.13;5110334;28;20428;-60